createdAt,value
2022-11-19T00:00:12.542Z,7.18
2022-11-19T00:03:01.695Z,6.22
2022-11-19T00:05:31.227Z,5.40
2022-11-19T00:08:01.755Z,6.38
2022-11-19T00:10:31.185Z,8.13
2022-11-19T00:12:59.302Z,13.50
2022-11-19T00:15:28.738Z,9.15
2022-11-19T00:17:59.162Z,11.35
2022-11-19T00:20:29.293Z,12.23
2022-11-19T00:23:00.437Z,14.25
2022-11-19T00:25:31.413Z,19.48
2022-11-19T00:28:00.731Z,19.17
2022-11-19T00:30:47.439Z,30.08
2022-11-19T00:33:17.642Z,69.15
2022-11-19T00:35:47.030Z,15.50
2022-11-19T00:38:17.453Z,13.85
2022-11-19T00:40:46.998Z,7.38
2022-11-19T00:43:33.759Z,11.85
2022-11-19T00:46:03.173Z,10.45
2022-11-19T00:48:32.473Z,8.93
2022-11-19T00:51:02.055Z,10.68
2022-11-19T00:53:32.581Z,12.27
2022-11-19T00:56:02.723Z,11.75
2022-11-19T00:58:32.147Z,12.23
2022-11-19T01:01:01.748Z,15.90
2022-11-19T01:03:31.313Z,12.05
2022-11-19T01:06:01.200Z,13.30
2022-11-19T01:08:31.669Z,11.13
2022-11-19T01:11:06.641Z,15.55
2022-11-19T01:13:37.381Z,14.57
2022-11-19T01:16:10.048Z,18.08
2022-11-19T01:18:40.925Z,22.33
2022-11-19T01:21:12.336Z,15.75
2022-11-19T01:23:44.209Z,16.25
2022-11-19T01:26:14.792Z,13.88
2022-11-19T01:28:44.588Z,13.70
2022-11-19T01:31:16.601Z,9.85
2022-11-19T01:33:46.396Z,12.02
2022-11-19T01:36:17.922Z,11.13
2022-11-19T01:38:51.109Z,16.83
2022-11-19T01:41:20.713Z,19.00
2022-11-19T01:43:52.071Z,23.63
2022-11-19T01:46:23.820Z,22.88
2022-11-19T01:48:56.565Z,24.70
2022-11-19T01:51:30.682Z,19.50
2022-11-19T01:54:04.773Z,17.27
2022-11-19T01:56:34.357Z,17.35
2022-11-19T01:59:08.533Z,16.20
2022-11-19T02:01:38.598Z,18.38
2022-11-19T02:04:09.464Z,18.45
2022-11-19T02:06:39.697Z,16.40
2022-11-19T02:09:10.424Z,16.02
2022-11-19T02:12:05.801Z,14.43
2022-11-19T02:14:55.548Z,16.30
2022-11-19T02:17:39.300Z,12.63
2022-11-19T02:20:39.893Z,11.20
2022-11-19T02:23:46.539Z,8.75
2022-11-19T02:26:48.729Z,11.52
2022-11-19T02:29:33.684Z,18.10
2022-11-19T02:32:11.188Z,13.50
2022-11-19T02:34:47.661Z,36.47
2022-11-19T02:37:25.876Z,33.83
2022-11-19T02:40:01.149Z,24.23
2022-11-19T02:42:35.354Z,17.93
2022-11-19T02:45:11.408Z,16.40
2022-11-19T02:47:46.119Z,14.18
2022-11-19T02:50:21.059Z,15.93
2022-11-19T02:52:51.364Z,9.73
2022-11-19T02:55:23.033Z,11.43
2022-11-19T02:57:57.576Z,12.30
2022-11-19T03:00:45.564Z,13.32
2022-11-19T03:03:36.344Z,15.13
2022-11-19T03:06:10.751Z,9.98
2022-11-19T03:08:40.070Z,18.08
2022-11-19T03:11:17.454Z,17.52
2022-11-19T03:14:13.942Z,14.23
2022-11-19T03:16:49.078Z,21.20
2022-11-19T03:19:38.963Z,16.63
2022-11-19T03:22:14.064Z,18.70
2022-11-19T03:24:46.856Z,38.37
2022-11-19T03:27:27.741Z,41.58
2022-11-19T03:30:02.179Z,24.67
2022-11-19T03:33:48.734Z,18.65
2022-11-19T03:36:22.900Z,21.33
2022-11-19T03:38:56.847Z,19.33
2022-11-19T03:41:28.615Z,18.25
2022-11-19T03:44:01.803Z,14.93
2022-11-19T03:46:33.942Z,21.73
2022-11-19T03:49:07.214Z,22.90
2022-11-19T03:51:42.866Z,17.75
2022-11-19T03:54:12.674Z,15.88
2022-11-19T03:56:43.255Z,11.57
2022-11-19T03:59:13.958Z,14.88
2022-11-19T04:01:45.297Z,25.58
2022-11-19T04:04:32.184Z,26.33
2022-11-19T04:07:02.813Z,32.83
2022-11-19T04:09:32.276Z,26.38
2022-11-19T04:12:01.938Z,14.65
2022-11-19T04:14:31.349Z,18.33
2022-11-19T04:17:00.743Z,16.63
2022-11-19T04:19:30.080Z,18.88
2022-11-19T04:21:59.440Z,14.48
2022-11-19T04:24:30.216Z,14.93
2022-11-19T04:26:59.372Z,13.82
2022-11-19T04:29:28.780Z,14.82
2022-11-19T04:31:57.828Z,10.60
2022-11-19T04:34:27.191Z,11.88
2022-11-19T04:36:56.334Z,12.85
2022-11-19T04:39:25.702Z,11.80
2022-11-19T04:41:56.248Z,15.20
2022-11-19T04:44:25.694Z,14.13
2022-11-19T04:46:54.801Z,16.75
2022-11-19T04:49:24.364Z,11.48
2022-11-19T04:51:53.490Z,14.88
2022-11-19T04:54:22.917Z,12.00
2022-11-19T04:56:52.022Z,15.80
2022-11-19T04:59:22.984Z,14.70
2022-11-19T05:01:52.764Z,14.13
2022-11-19T05:04:22.414Z,23.65
2022-11-19T05:06:51.535Z,25.45
2022-11-19T05:09:21.336Z,18.30
2022-11-19T05:11:50.665Z,14.10
2022-11-19T05:14:23.663Z,11.45
2022-11-19T05:16:55.091Z,14.20
2022-11-19T05:19:24.594Z,17.85
2022-11-19T05:21:53.687Z,19.42
2022-11-19T05:24:23.172Z,20.80
2022-11-19T05:26:52.313Z,30.33
2022-11-19T05:29:23.077Z,18.75
2022-11-19T05:31:52.149Z,13.27
2022-11-19T05:34:21.673Z,13.88
2022-11-19T05:36:50.837Z,14.32
2022-11-19T05:39:22.279Z,13.57
2022-11-19T05:41:51.641Z,13.00
2022-11-19T05:44:22.417Z,16.13
2022-11-19T05:46:51.540Z,16.92
2022-11-19T05:49:21.066Z,37.80
2022-11-19T05:51:50.303Z,35.30
2022-11-19T05:54:19.781Z,22.52
2022-11-19T05:56:49.024Z,16.83
2022-11-19T05:59:18.576Z,19.88
2022-11-19T06:01:49.254Z,17.70
2022-11-19T06:04:18.781Z,21.88
2022-11-19T06:06:47.929Z,23.80
2022-11-19T06:09:17.913Z,25.48
2022-11-19T06:11:50.518Z,23.10
2022-11-19T06:14:22.221Z,22.50
2022-11-19T06:16:53.572Z,24.77
2022-11-19T06:19:23.264Z,21.50
2022-11-19T06:21:52.904Z,32.38
2022-11-19T06:24:22.762Z,43.47
2022-11-19T06:26:51.939Z,30.98
2022-11-19T06:29:21.945Z,41.13
2022-11-19T06:31:52.684Z,31.90
2022-11-19T06:34:22.043Z,28.60
2022-11-19T06:36:51.124Z,33.40
2022-11-19T06:39:21.074Z,32.70
2022-11-19T06:41:50.316Z,41.22
2022-11-19T06:44:19.698Z,47.00
2022-11-19T06:46:48.929Z,44.22
2022-11-19T06:49:20.510Z,38.47
2022-11-19T06:51:49.887Z,48.10
2022-11-19T06:54:19.402Z,35.55
2022-11-19T06:56:48.424Z,49.00
2022-11-19T06:59:18.127Z,48.72
2022-11-19T07:01:47.440Z,54.88
2022-11-19T07:04:18.669Z,37.90
2022-11-19T07:06:47.986Z,41.13
2022-11-19T07:09:18.218Z,42.00
2022-11-19T07:11:47.575Z,24.48
2022-11-19T07:14:16.988Z,27.08
2022-11-19T07:16:46.071Z,20.13
2022-11-19T07:19:15.468Z,23.25
2022-11-19T07:21:46.227Z,24.73
2022-11-19T07:24:18.809Z,28.15
2022-11-19T07:26:48.051Z,25.90
2022-11-19T07:29:18.331Z,21.58
2022-11-19T07:31:50.490Z,23.80
2022-11-19T07:34:20.671Z,22.55
2022-11-19T07:36:51.250Z,18.63
2022-11-19T07:39:20.839Z,26.17
2022-11-19T07:42:07.608Z,28.02
2022-11-19T07:44:36.992Z,29.15
2022-11-19T07:47:07.924Z,21.92
2022-11-19T07:49:37.488Z,22.08
2022-11-19T07:52:08.281Z,26.88
2022-11-19T07:54:37.727Z,26.35
2022-11-19T07:57:06.773Z,26.73
2022-11-19T07:59:36.255Z,25.42
2022-11-19T08:02:05.482Z,27.70
2022-11-19T08:04:35.013Z,24.27
2022-11-19T08:07:04.183Z,28.58
2022-11-19T08:09:35.015Z,29.63
2022-11-19T08:12:04.205Z,32.30
2022-11-19T08:14:33.649Z,26.08
2022-11-19T08:17:20.204Z,26.00
2022-11-19T08:19:49.635Z,28.75
2022-11-19T08:22:18.764Z,25.60
2022-11-19T08:24:49.834Z,26.05
2022-11-19T08:27:19.207Z,33.95
2022-11-19T08:29:48.614Z,30.73
2022-11-19T08:32:17.914Z,25.98
2022-11-19T08:34:47.518Z,23.52
2022-11-19T08:37:16.706Z,25.33
2022-11-19T08:39:46.122Z,25.30
2022-11-19T08:42:34.311Z,24.25
2022-11-19T08:45:03.776Z,32.47
2022-11-19T08:47:32.930Z,26.85
2022-11-19T08:50:02.384Z,22.27
2022-11-19T08:52:31.580Z,21.92
2022-11-19T08:55:00.949Z,25.27
2022-11-19T08:57:31.461Z,28.15
2022-11-19T09:00:05.900Z,26.40
2022-11-19T09:02:35.606Z,29.53
2022-11-19T09:05:05.306Z,22.08
2022-11-19T09:07:34.475Z,28.00
2022-11-19T09:10:03.923Z,21.67
2022-11-19T09:12:34.609Z,30.25
2022-11-19T09:15:04.074Z,29.52
2022-11-19T09:17:33.750Z,22.92
2022-11-19T09:20:03.283Z,27.15
2022-11-19T09:22:32.447Z,27.83
2022-11-19T09:25:01.873Z,30.60
2022-11-19T09:27:31.004Z,22.92
2022-11-19T09:30:01.716Z,26.13
2022-11-19T09:32:30.802Z,30.23
2022-11-19T09:35:00.176Z,37.42
2022-11-19T09:37:31.660Z,27.60
2022-11-19T09:40:01.215Z,28.95
2022-11-19T09:42:41.719Z,25.23
2022-11-19T09:45:20.146Z,21.80
2022-11-19T09:48:05.166Z,25.85
2022-11-19T09:50:49.008Z,24.38
2022-11-19T09:53:23.711Z,21.20
2022-11-19T09:55:55.117Z,25.90
2022-11-19T09:58:29.349Z,27.08
2022-11-19T10:01:00.259Z,34.45
2022-11-19T10:03:33.359Z,29.52
2022-11-19T10:06:24.188Z,24.75
2022-11-19T10:09:06.266Z,18.52
2022-11-19T10:11:46.893Z,24.27
2022-11-19T10:14:30.887Z,19.55
2022-11-19T10:17:13.236Z,25.02
2022-11-19T10:19:55.312Z,22.05
2022-11-19T10:22:32.121Z,34.88
2022-11-19T10:25:06.709Z,25.83
2022-11-19T10:27:44.097Z,24.20
2022-11-19T10:30:17.692Z,26.40
2022-11-19T10:32:57.021Z,23.15
2022-11-19T10:35:30.590Z,26.58
2022-11-19T10:38:02.920Z,26.45
2022-11-19T10:40:38.010Z,30.15
2022-11-19T10:43:22.047Z,26.75
2022-11-19T10:45:52.678Z,30.13
2022-11-19T10:48:25.423Z,26.40
2022-11-19T10:50:57.159Z,29.30
2022-11-19T10:53:31.558Z,27.42
2022-11-19T10:56:04.300Z,28.20
2022-11-19T10:58:37.893Z,27.58
2022-11-19T11:01:15.792Z,29.38
2022-11-19T11:03:50.354Z,20.83
2022-11-19T11:06:19.381Z,28.95
2022-11-19T11:08:50.944Z,31.52
2022-11-19T11:11:50.015Z,26.88
2022-11-19T11:14:39.192Z,22.15
2022-11-19T11:17:20.491Z,25.90
2022-11-19T11:20:01.067Z,24.23
2022-11-19T11:22:30.586Z,24.23
2022-11-19T11:25:06.771Z,26.45
2022-11-19T11:27:37.315Z,30.30
2022-11-19T11:30:16.221Z,26.00
2022-11-19T11:32:45.351Z,23.40
2022-11-19T11:35:33.791Z,26.83
2022-11-19T11:38:04.633Z,30.63
2022-11-19T11:40:34.015Z,29.73
2022-11-19T11:43:03.316Z,29.30
2022-11-19T11:45:35.528Z,31.63
2022-11-19T11:48:08.857Z,34.33
2022-11-19T11:50:39.770Z,32.63
2022-11-19T11:53:10.721Z,33.22
2022-11-19T11:55:40.095Z,29.58
2022-11-19T11:58:27.771Z,30.08
2022-11-19T12:01:15.422Z,26.55
2022-11-19T12:03:55.578Z,26.42
2022-11-19T12:06:34.087Z,28.38
2022-11-19T12:09:11.088Z,27.70
2022-11-19T12:11:58.186Z,31.95
2022-11-19T12:14:32.099Z,31.13
2022-11-19T12:17:19.780Z,29.80
2022-11-19T12:20:11.042Z,29.13
2022-11-19T12:22:57.591Z,28.77
2022-11-19T12:28:27.095Z,29.38
2022-11-19T12:31:06.455Z,33.83
2022-11-19T12:33:51.982Z,38.25
2022-11-19T12:36:28.632Z,36.93
2022-11-19T12:39:06.903Z,32.08
2022-11-19T12:42:03.907Z,30.02
2022-11-19T12:44:42.188Z,70.60
2022-11-19T12:47:24.182Z,56.95
2022-11-19T12:50:06.905Z,36.28
2022-11-19T12:53:02.011Z,36.15
2022-11-19T12:55:40.972Z,35.45
2022-11-19T12:58:20.023Z,41.35
2022-11-19T13:00:56.201Z,36.00
2022-11-19T13:03:38.794Z,44.10
2022-11-19T13:06:17.948Z,31.55
2022-11-19T13:08:53.290Z,43.97
2022-11-19T13:11:36.491Z,35.60
2022-11-19T13:14:10.802Z,37.40
2022-11-19T13:16:40.903Z,42.63
2022-11-19T13:19:21.523Z,38.92
2022-11-19T13:21:57.283Z,36.33
2022-11-19T13:24:32.229Z,32.30
2022-11-19T13:27:06.541Z,37.67
2022-11-19T13:29:44.048Z,36.55
2022-11-19T13:32:20.152Z,41.60
2022-11-19T13:37:42.092Z,33.88
2022-11-19T13:40:20.890Z,27.98
2022-11-19T13:43:30.979Z,38.28
2022-11-19T13:46:17.889Z,30.95
2022-11-19T13:48:55.553Z,36.88
2022-11-19T13:51:30.193Z,35.13
2022-11-19T13:54:03.515Z,38.30
2022-11-19T13:56:45.180Z,31.60
2022-11-19T13:59:30.076Z,33.08
2022-11-19T14:02:33.879Z,31.52
2022-11-19T14:05:26.752Z,52.72
2022-11-19T14:08:08.431Z,36.92
2022-11-19T14:10:45.356Z,45.60
2022-11-19T14:13:39.011Z,41.20
2022-11-19T14:16:37.954Z,37.50
2022-11-19T14:19:30.988Z,40.92
2022-11-19T14:22:19.108Z,46.22
2022-11-19T14:25:16.281Z,44.13
2022-11-19T14:27:46.457Z,45.45
2022-11-19T14:30:18.596Z,50.42
2022-11-19T14:32:51.766Z,49.38
2022-11-19T14:35:32.548Z,50.70
2022-11-19T14:38:32.429Z,53.28
2022-11-19T14:41:23.105Z,47.42
2022-11-19T14:44:11.579Z,41.55
2022-11-19T14:46:51.142Z,37.38
2022-11-19T14:49:34.295Z,39.72
2022-11-19T14:52:04.713Z,37.75
2022-11-19T14:54:39.565Z,37.55
2022-11-19T14:57:25.219Z,44.95
2022-11-19T14:59:58.222Z,44.65
2022-11-19T15:02:34.671Z,42.92
2022-11-19T15:05:16.535Z,41.88
2022-11-19T15:07:55.901Z,48.83
2022-11-19T15:10:34.739Z,43.25
2022-11-19T15:13:31.975Z,47.28
2022-11-19T15:16:12.760Z,53.17
2022-11-19T15:19:09.092Z,45.42
2022-11-19T15:25:01.545Z,38.63
2022-11-19T15:27:49.511Z,41.47
2022-11-19T15:30:21.193Z,39.55
2022-11-19T15:33:14.730Z,36.53
2022-11-19T15:36:23.216Z,35.78
2022-11-19T15:39:00.654Z,41.28
2022-11-19T15:41:33.719Z,38.28
2022-11-19T15:44:09.684Z,45.97
2022-11-19T15:49:15.701Z,34.38
2022-11-19T15:52:00.587Z,36.42
2022-11-19T15:54:31.390Z,37.05
2022-11-19T15:57:05.622Z,29.92
2022-11-19T15:59:39.180Z,32.97
2022-11-19T16:02:20.369Z,51.20
2022-11-19T16:04:51.459Z,43.67
2022-11-19T16:07:26.166Z,54.50
2022-11-19T16:09:55.832Z,41.60
2022-11-19T16:12:44.963Z,39.58
2022-11-19T16:15:37.793Z,49.22
2022-11-19T16:18:14.627Z,35.53
2022-11-19T16:20:47.898Z,34.17
2022-11-19T16:23:20.430Z,36.88
2022-11-19T16:25:50.568Z,35.25
2022-11-19T16:28:25.993Z,37.45
2022-11-19T16:33:28.063Z,40.08
2022-11-19T16:36:13.985Z,35.58
2022-11-19T16:38:46.902Z,23.95
2022-11-19T16:41:36.365Z,44.33
2022-11-19T16:44:10.709Z,31.30
2022-11-19T16:46:40.712Z,36.85
2022-11-19T16:49:29.842Z,33.42
2022-11-19T16:51:59.714Z,36.97
2022-11-19T16:54:46.985Z,32.92
2022-11-19T16:57:19.376Z,47.67
2022-11-19T16:59:53.260Z,40.35
2022-11-19T17:02:26.525Z,35.22
2022-11-19T17:04:55.669Z,41.83
2022-11-19T17:07:27.880Z,35.55
2022-11-19T17:10:11.744Z,30.75
2022-11-19T17:12:51.934Z,36.13
2022-11-19T17:15:39.745Z,30.88
2022-11-19T17:18:29.668Z,30.60
2022-11-19T17:21:00.170Z,31.80
2022-11-19T17:23:31.803Z,37.75
2022-11-19T17:26:03.055Z,32.38
2022-11-19T17:28:41.174Z,29.85
2022-11-19T17:31:19.537Z,33.60
2022-11-19T17:33:56.892Z,32.30
2022-11-19T17:36:27.766Z,32.30
2022-11-19T17:38:57.713Z,29.85
2022-11-19T17:41:46.890Z,32.22
2022-11-19T17:44:39.289Z,30.50
2022-11-19T17:47:22.504Z,37.22
2022-11-19T17:49:53.685Z,30.40
2022-11-19T17:52:25.436Z,25.20
2022-11-19T17:54:57.302Z,27.10
2022-11-19T17:57:26.539Z,36.38
2022-11-19T17:59:56.066Z,36.08
2022-11-19T18:02:27.045Z,28.30
2022-11-19T18:04:56.425Z,29.92
2022-11-19T18:07:25.553Z,29.70
2022-11-19T18:09:55.032Z,35.03
2022-11-19T18:12:24.157Z,36.63
2022-11-19T18:14:55.722Z,31.27
2022-11-19T18:17:28.361Z,31.95
2022-11-19T18:19:57.878Z,32.63
2022-11-19T18:22:27.017Z,24.45
2022-11-19T18:24:57.317Z,27.88
2022-11-19T18:27:26.432Z,37.75
2022-11-19T18:29:56.087Z,25.05
2022-11-19T18:32:25.158Z,33.65
2022-11-19T18:35:00.570Z,31.98
2022-11-19T18:37:30.910Z,28.88
2022-11-19T18:40:00.210Z,33.60
2022-11-19T18:42:30.936Z,28.38
2022-11-19T18:44:59.257Z,24.88
2022-11-19T18:47:28.377Z,25.10
2022-11-19T18:49:59.381Z,28.75
2022-11-19T18:52:28.500Z,22.80
2022-11-19T18:54:58.047Z,23.58
2022-11-19T18:57:27.241Z,27.90
2022-11-19T18:59:56.846Z,26.27
2022-11-19T19:02:25.985Z,24.13
2022-11-19T19:04:55.328Z,23.13
2022-11-19T19:07:26.050Z,28.45
2022-11-19T19:09:55.512Z,31.55
2022-11-19T19:12:23.529Z,46.17
2022-11-19T19:14:54.715Z,36.75
2022-11-19T19:17:23.875Z,34.42
2022-11-19T19:19:53.224Z,30.08
2022-11-19T19:22:24.092Z,38.63
2022-11-19T19:24:57.974Z,43.38
2022-11-19T19:27:27.616Z,46.03
2022-11-19T19:29:57.121Z,46.20
2022-11-19T19:32:26.525Z,31.48
2022-11-19T19:34:55.978Z,34.88
2022-11-19T19:37:26.687Z,35.60
2022-11-19T19:39:56.199Z,56.92
2022-11-19T19:42:25.299Z,38.30
2022-11-19T19:44:54.700Z,45.17
2022-11-19T19:47:23.787Z,28.40
2022-11-19T19:49:53.252Z,37.80
2022-11-19T19:52:22.364Z,42.38
2022-11-19T19:54:53.081Z,33.97
2022-11-19T19:57:22.273Z,35.05
2022-11-19T19:59:51.622Z,30.52
2022-11-19T20:02:20.795Z,37.47
2022-11-19T20:04:50.241Z,27.70
2022-11-19T20:07:19.371Z,37.33
2022-11-19T20:09:48.871Z,39.50
2022-11-19T20:12:19.469Z,40.40
2022-11-19T20:14:51.188Z,33.03
2022-11-19T20:17:21.339Z,29.50
2022-11-19T20:19:50.826Z,34.10
2022-11-19T20:22:20.537Z,38.28
2022-11-19T20:24:49.901Z,48.38
2022-11-19T20:27:20.408Z,59.33
2022-11-19T20:29:49.772Z,40.90
2022-11-19T20:32:19.234Z,39.58
2022-11-19T20:34:48.993Z,34.55
2022-11-19T20:37:18.221Z,35.78
2022-11-19T20:39:47.603Z,40.90
2022-11-19T20:42:34.344Z,33.97
2022-11-19T20:45:05.619Z,30.98
2022-11-19T20:47:34.863Z,33.58
2022-11-19T20:50:04.283Z,29.95
2022-11-19T20:52:33.520Z,31.73
2022-11-19T20:55:06.657Z,33.25
2022-11-19T20:57:36.136Z,36.33
2022-11-19T21:00:08.490Z,34.60
2022-11-19T21:02:37.803Z,29.08
2022-11-19T21:05:07.901Z,31.15
2022-11-19T21:07:37.349Z,30.17
2022-11-19T21:10:08.249Z,46.90
2022-11-19T21:12:57.427Z,37.50
2022-11-19T21:15:28.192Z,48.28
2022-11-19T21:17:57.326Z,42.05
2022-11-19T21:20:26.795Z,40.58
2022-11-19T21:22:55.976Z,43.22
2022-11-19T21:25:25.848Z,38.92
2022-11-19T21:27:55.762Z,30.52
2022-11-19T21:30:27.713Z,36.42
2022-11-19T21:32:56.831Z,30.63
2022-11-19T21:35:26.218Z,32.08
2022-11-19T21:37:55.376Z,28.98
2022-11-19T21:40:24.771Z,35.25
2022-11-19T21:42:54.056Z,49.72
2022-11-19T21:45:24.156Z,56.22
2022-11-19T21:47:54.872Z,49.45
2022-11-19T21:50:24.277Z,45.53
2022-11-19T21:52:53.378Z,58.58
2022-11-19T21:55:23.279Z,60.92
2022-11-19T21:57:52.448Z,41.28
2022-11-19T22:00:22.411Z,41.15
2022-11-19T22:02:54.651Z,45.70
2022-11-19T22:05:24.862Z,53.08
2022-11-19T22:07:54.330Z,43.83
2022-11-19T22:10:23.661Z,48.92
2022-11-19T22:12:52.706Z,44.30
2022-11-19T22:15:22.171Z,36.70
2022-11-19T22:17:51.231Z,48.22
2022-11-19T22:20:23.838Z,59.38
2022-11-19T22:22:53.117Z,40.30
2022-11-19T22:25:22.384Z,45.78
2022-11-19T22:27:51.729Z,42.85
2022-11-19T22:30:21.260Z,39.92
2022-11-19T22:32:50.263Z,35.75
2022-11-19T22:35:21.099Z,40.35
2022-11-19T22:37:50.181Z,46.25
2022-11-19T22:40:19.721Z,47.88
2022-11-19T22:42:48.753Z,46.28
2022-11-19T22:45:18.197Z,40.50
2022-11-19T22:47:47.287Z,39.90
2022-11-19T22:50:16.810Z,51.88
2022-11-19T22:52:47.254Z,47.03
2022-11-19T22:55:16.678Z,44.22
2022-11-19T22:57:45.745Z,76.80
2022-11-19T23:00:36.460Z,76.90
2022-11-19T23:03:05.582Z,85.78
2022-11-19T23:05:37.244Z,80.53
2022-11-19T23:08:10.870Z,65.60
2022-11-19T23:10:40.912Z,50.65
2022-11-19T23:13:32.064Z,78.55
2022-11-19T23:16:05.292Z,102.97
2022-11-19T23:18:36.588Z,71.82
2022-11-19T23:21:07.770Z,51.08
2022-11-19T23:23:38.924Z,54.25
2022-11-19T23:26:10.319Z,55.97
2022-11-19T23:28:40.180Z,53.17
2022-11-19T23:31:11.532Z,53.90
2022-11-19T23:33:40.592Z,46.63
2022-11-19T23:36:12.453Z,45.53
2022-11-19T23:38:43.351Z,43.75
2022-11-19T23:41:15.279Z,43.72
2022-11-19T23:43:45.216Z,46.33
2022-11-19T23:46:16.326Z,49.15
2022-11-19T23:48:48.106Z,50.42
2022-11-19T23:51:19.916Z,47.47
2022-11-19T23:53:50.716Z,46.00
2022-11-19T23:56:21.538Z,44.97
2022-11-19T23:58:51.128Z,36.63
